Time;durP1;ratioP1;P1;durP2;ratioP2;P2;SDS_P1;SDS_P2;PMS_P1;PMS_P2;Temp;Humidity;BMP_temperature;BMP_pressure;BME280_temperature;BME280_humidity;BME280_pressure;Samples;Min_cycle;Max_cycle;Signal;HPM_P1;HPM_P2
2023/03/19 00:00:08;;;;;;;31.75;17.77;;;;;;;9.72;88.30;100756.34;6192142;23;20383;-85
2023/03/19 00:02:35;;;;;;;29.40;16.42;;;;;;;9.61;88.83;100765.34;6217216;23;20147;-85
2023/03/19 00:05:01;;;;;;;33.53;17.67;;;;;;;9.55;89.96;100767.75;6217270;23;20038;-86
2023/03/19 00:07:27;;;;;;;36.60;17.80;;;;;;;9.53;89.41;100767.91;6225916;23;20073;-84
2023/03/19 00:09:52;;;;;;;32.42;16.98;;;;;;;9.67;88.41;100772.69;6232146;23;20032;-87
2023/03/19 00:12:18;;;;;;;33.67;17.40;;;;;;;9.62;88.77;100764.38;6220788;23;20432;-86
2023/03/19 00:14:43;;;;;;;32.97;17.40;;;;;;;9.57;88.95;100761.34;6220812;23;20130;-85
2023/03/19 00:17:10;;;;;;;41.90;17.20;;;;;;;9.61;87.94;100762.69;6224512;23;20395;-83
2023/03/19 00:19:35;;;;;;;35.08;16.95;;;;;;;9.44;89.30;100763.53;6221086;23;20035;-84
2023/03/19 00:22:01;;;;;;;30.63;16.20;;;;;;;9.50;89.18;100754.16;6193483;23;20013;-84
2023/03/19 00:24:27;;;;;;;34.40;17.15;;;;;;;9.76;87.39;100753.25;6220761;23;20004;-83
2023/03/19 00:26:55;;;;;;;33.20;17.85;;;;;;;9.59;88.22;100754.09;6219235;23;20012;-85
2023/03/19 00:29:22;;;;;;;33.88;16.75;;;;;;;9.52;89.57;100752.19;6192357;23;20015;-86
2023/03/19 00:31:48;;;;;;;33.90;16.70;;;;;;;9.61;88.12;100754.75;6192191;23;20005;-85
2023/03/19 00:34:17;;;;;;;28.25;15.85;;;;;;;9.67;88.17;100762.13;6217280;23;20088;-85
2023/03/19 00:36:44;;;;;;;33.03;17.23;;;;;;;9.54;88.86;100761.66;6217251;23;20039;-86
2023/03/19 00:39:09;;;;;;;30.50;16.25;;;;;;;9.37;91.12;100758.97;6194916;23;20013;-86
2023/03/19 00:41:35;;;;;;;30.83;16.40;;;;;;;9.17;92.87;100752.97;6217733;23;20499;-85
2023/03/19 00:44:02;;;;;;;28.92;16.17;;;;;;;9.08;95.06;100746.72;6218351;23;20008;-85
2023/03/19 00:46:28;;;;;;;30.90;17.00;;;;;;;8.93;96.31;100747.38;6220818;23;20037;-85
2023/03/19 00:48:54;;;;;;;32.47;17.95;;;;;;;8.92;96.59;100748.34;6196151;23;20005;-86
2023/03/19 00:51:21;;;;;;;28.73;16.92;;;;;;;9.05;95.31;100741.72;6191496;23;20007;-84
2023/03/19 00:53:47;;;;;;;30.30;16.40;;;;;;;9.15;94.55;100741.69;6218808;23;20009;-85
2023/03/19 00:56:14;;;;;;;30.20;17.05;;;;;;;9.20;93.26;100728.88;6191445;23;20013;-85
2023/03/19 00:58:40;;;;;;;25.65;15.15;;;;;;;9.11;94.96;100730.59;6190978;23;20317;-87
2023/03/19 01:01:07;;;;;;;33.42;17.42;;;;;;;9.34;93.27;100725.72;6228006;23;20023;-86
2023/03/19 01:03:33;;;;;;;30.10;16.58;;;;;;;9.35;91.16;100725.56;6217224;23;20005;-86
2023/03/19 01:05:59;;;;;;;34.95;16.33;;;;;;;9.32;91.49;100711.78;6216090;23;20025;-84
2023/03/19 01:08:25;;;;;;;29.90;16.98;;;;;;;9.08;93.70;100716.84;6189648;23;20013;-84
2023/03/19 01:10:51;;;;;;;29.88;16.08;;;;;;;9.04;93.78;100726.03;6189599;23;20016;-87
2023/03/19 01:13:16;;;;;;;34.92;17.63;;;;;;;8.93;95.13;100732.34;6215837;23;20059;-84
2023/03/19 01:15:43;;;;;;;29.30;16.83;;;;;;;8.96;95.43;100739.97;6164602;23;20012;-84
2023/03/19 01:18:10;;;;;;;34.22;17.25;;;;;;;9.05;94.16;100733.00;6189176;23;20036;-86
2023/03/19 01:20:38;;;;;;;30.45;16.42;;;;;;;9.14;94.07;100740.03;6190134;23;20043;-86
2023/03/19 01:23:06;;;;;;;29.77;16.27;;;;;;;9.51;91.26;100729.38;6193155;23;20020;-84
2023/03/19 01:25:33;;;;;;;30.63;16.80;;;;;;;9.43;90.07;100739.84;6204276;23;20147;-84
2023/03/19 01:28:03;;;;;;;31.42;15.90;;;;;;;9.38;91.71;100739.47;6206158;23;20008;-84
2023/03/19 01:30:29;;;;;;;33.70;16.35;;;;;;;9.26;92.62;100744.13;6195200;23;20584;-84
2023/03/19 01:33:15;;;;;;;32.58;16.13;;;;;;;9.34;91.77;100738.94;6215121;23;20016;-87
2023/03/19 01:36:04;;;;;;;25.92;15.63;;;;;;;9.51;90.42;100735.47;6215370;23;20024;-85
2023/03/19 01:38:56;;;;;;;26.50;15.55;;;;;;;9.70;89.78;100730.06;6210468;23;20017;-85
2023/03/19 01:41:23;;;;;;;28.33;16.02;;;;;;;9.76;88.51;100728.59;6189260;23;20055;-85
2023/03/19 01:43:50;;;;;;;25.55;15.43;;;;;;;9.84;88.02;100736.63;6189327;23;20015;-85
2023/03/19 01:46:37;;;;;;;26.50;15.40;;;;;;;9.66;89.06;100735.78;6189202;23;20017;-85
2023/03/19 01:49:26;;;;;;;32.05;16.52;;;;;;;9.72;88.11;100736.00;6154790;23;20028;-86
2023/03/19 01:52:06;;;;;;;24.45;15.18;;;;;;;9.54;89.39;100735.19;6188869;23;20011;-86
2023/03/19 01:54:44;;;;;;;27.38;15.00;;;;;;;9.60;88.04;100729.28;6189868;23;20064;-85
2023/03/19 01:57:30;;;;;;;27.67;15.48;;;;;;;9.44;89.80;100734.44;6219627;23;20467;-87
2023/03/19 02:00:15;;;;;;;29.48;16.63;;;;;;;9.54;89.50;100729.91;6215540;23;20147;-87
2023/03/19 02:02:52;;;;;;;24.23;14.60;;;;;;;9.46;90.54;100711.28;6216164;23;20016;-85
2023/03/19 02:05:40;;;;;;;32.90;16.20;;;;;;;9.42;91.00;100709.91;6169067;23;20441;-86
2023/03/19 02:08:12;;;;;;;27.48;15.88;;;;;;;9.37;92.03;100716.66;6164625;23;20019;-86
2023/03/19 02:10:39;;;;;;;28.63;14.40;;;;;;;9.50;90.38;100712.66;6188957;23;20082;-86
2023/03/19 02:13:05;;;;;;;26.95;14.63;;;;;;;9.39;91.24;100712.88;6215624;23;20074;-87
2023/03/19 02:15:31;;;;;;;27.75;15.55;;;;;;;9.73;89.02;100719.16;6215464;23;20008;-85
2023/03/19 02:17:57;;;;;;;28.08;14.38;;;;;;;9.65;89.18;100711.13;6164041;23;20005;-87
2023/03/19 02:20:28;;;;;;;27.45;15.73;;;;;;;9.34;92.59;100704.56;6215325;23;20012;-84
2023/03/19 02:23:37;;;;;;;30.23;15.73;;;;;;;9.27;93.49;100700.84;6188652;23;20356;-85
2023/03/19 02:26:16;;;;;;;26.88;14.82;;;;;;;9.18;94.42;100701.75;6164566;23;20019;-86
2023/03/19 02:28:46;;;;;;;27.83;15.63;;;;;;;9.40;92.17;100701.31;6188255;23;20023;-85
2023/03/19 02:31:15;;;;;;;28.63;15.10;;;;;;;9.44;91.86;100697.38;6164536;23;20005;-87
2023/03/19 02:33:41;;;;;;;28.48;16.73;;;;;;;9.48;92.09;100698.72;6188631;23;20009;-86
2023/03/19 02:36:13;;;;;;;26.98;15.80;;;;;;;9.22;94.84;100708.38;6188766;23;20067;-87
2023/03/19 02:38:41;;;;;;;31.23;15.98;;;;;;;9.27;94.25;100698.19;6215471;23;20059;-85
2023/03/19 02:41:09;;;;;;;27.27;16.17;;;;;;;9.08;96.23;100703.63;6188472;23;20019;-84
2023/03/19 02:43:37;;;;;;;31.85;15.32;;;;;;;8.81;100.00;100700.00;6164033;23;20004;-85
2023/03/19 02:46:05;;;;;;;31.95;16.65;;;;;;;8.77;100.00;100706.56;6215195;23;20071;-85
2023/03/19 02:48:31;;;;;;;29.67;15.32;;;;;;;8.96;99.45;100702.13;6215328;23;20070;-84
2023/03/19 02:50:58;;;;;;;27.88;16.55;;;;;;;9.03;97.81;100708.50;6188649;23;20103;-87
2023/03/19 02:53:24;;;;;;;30.45;15.20;;;;;;;8.98;98.87;100703.63;6188575;23;20020;-85
2023/03/19 02:55:50;;;;;;;28.50;15.63;;;;;;;9.13;97.27;100704.00;6189012;23;20420;-86
2023/03/19 02:58:16;;;;;;;28.33;15.85;;;;;;;9.19;97.20;100698.94;6215353;23;20385;-86
2023/03/19 03:00:42;;;;;;;28.90;15.98;;;;;;;9.19;97.00;100695.47;6188502;23;20336;-86
2023/03/19 03:03:08;;;;;;;27.17;15.68;;;;;;;9.03;98.12;100690.00;6215210;23;20011;-86
2023/03/19 03:05:34;;;;;;;27.23;15.27;;;;;;;9.10;98.68;100699.00;6188665;23;20004;-85
2023/03/19 03:08:00;;;;;;;25.85;15.23;;;;;;;9.25;96.95;100702.78;6189164;23;20019;-86
2023/03/19 03:10:26;;;;;;;26.17;15.15;;;;;;;9.21;96.50;100693.50;6215377;23;20013;-87
2023/03/19 03:12:52;;;;;;;24.73;14.00;;;;;;;9.51;94.63;100693.13;6188850;23;20321;-85
2023/03/19 03:15:17;;;;;;;27.55;14.52;;;;;;;9.35;94.14;100695.63;6188273;23;20096;-86
2023/03/19 03:17:44;;;;;;;27.70;14.60;;;;;;;9.18;95.10;100701.75;6188239;23;20074;-85
2023/03/19 03:20:12;;;;;;;27.25;15.85;;;;;;;9.25;93.54;100703.63;6188889;23;20087;-87
2023/03/19 03:22:38;;;;;;;25.35;14.07;;;;;;;9.55;91.37;100699.78;6215285;23;20372;-87
2023/03/19 03:25:04;;;;;;;29.40;14.52;;;;;;;9.50;90.47;100696.78;6215144;23;20328;-84
2023/03/19 03:27:30;;;;;;;26.42;15.38;;;;;;;9.66;89.13;100707.50;6215383;23;20016;-87
2023/03/19 03:29:56;;;;;;;27.88;15.02;;;;;;;9.54;90.58;100700.78;6214982;23;20066;-85
2023/03/19 03:32:22;;;;;;;32.72;14.60;;;;;;;9.55;90.84;100699.78;6215215;23;20020;-86
2023/03/19 03:34:48;;;;;;;27.27;15.13;;;;;;;9.53;91.73;100704.41;6215367;23;20448;-86
2023/03/19 03:37:16;;;;;;;31.02;15.85;;;;;;;9.21;94.70;100710.19;6215812;23;20016;-86
2023/03/19 03:39:42;;;;;;;38.75;15.95;;;;;;;9.21;93.98;100722.59;6219806;23;20040;-86
2023/03/19 03:42:07;;;;;;;27.80;14.93;;;;;;;8.91;96.78;100720.25;6167721;23;20008;-85
2023/03/19 03:44:35;;;;;;;26.50;14.73;;;;;;;9.02;96.58;100723.53;6193073;23;20086;-87
2023/03/19 03:47:03;;;;;;;29.50;15.23;;;;;;;8.92;97.50;100735.13;6217341;23;20013;-85
2023/03/19 03:49:28;;;;;;;30.50;15.13;;;;;;;8.84;98.89;100727.94;6190580;23;20008;-88
2023/03/19 03:51:54;;;;;;;31.00;15.77;;;;;;;8.72;100.00;100727.28;6165393;23;20008;-83
2023/03/19 03:54:20;;;;;;;29.20;16.05;;;;;;;8.65;100.00;100730.66;6190295;23;20013;-86
2023/03/19 03:56:46;;;;;;;29.40;16.63;;;;;;;8.59;100.00;100721.47;6216759;23;20050;-86
2023/03/19 03:59:11;;;;;;;26.42;15.40;;;;;;;8.59;100.00;100725.94;6190094;23;20009;-83
2023/03/19 04:01:37;;;;;;;27.17;15.68;;;;;;;8.73;100.00;100728.13;6190452;23;20340;-84
2023/03/19 04:04:02;;;;;;;29.20;15.98;;;;;;;9.05;100.00;100733.00;6190900;23;20040;-84
2023/03/19 04:06:28;;;;;;;28.50;15.00;;;;;;;9.15;100.00;100733.75;6190101;23;20017;-85
2023/03/19 04:09:15;;;;;;;27.50;15.38;;;;;;;9.30;98.17;100732.28;6216130;23;20420;-85
2023/03/19 04:11:41;;;;;;;32.58;16.67;;;;;;;9.11;99.97;100729.75;6218472;23;20013;-87
2023/03/19 04:14:07;;;;;;;35.42;16.50;;;;;;;9.04;100.00;100736.59;6217089;23;20028;-84
2023/03/19 04:16:33;;;;;;;29.73;14.95;;;;;;;9.12;100.00;100741.97;6190287;23;20332;-87
2023/03/19 04:18:59;;;;;;;35.42;16.83;;;;;;;8.96;100.00;100750.53;6190557;23;20012;-84
2023/03/19 04:21:26;;;;;;;28.20;15.70;;;;;;;8.69;100.00;100743.41;6191659;23;20407;-86
2023/03/19 04:23:55;;;;;;;28.65;16.30;;;;;;;8.92;100.00;100753.63;6219603;23;20009;-87
2023/03/19 04:26:20;;;;;;;32.08;16.65;;;;;;;9.01;100.00;100750.13;6194043;23;20083;-84
2023/03/19 04:28:46;;;;;;;35.03;16.90;;;;;;;9.03;100.00;100756.09;6192761;23;20023;-85
2023/03/19 04:31:11;;;;;;;31.10;16.02;;;;;;;8.89;100.00;100756.56;6191104;23;20046;-85
2023/03/19 04:33:42;;;;;;;30.02;16.48;;;;;;;8.74;100.00;100748.28;6189764;23;20024;-86
2023/03/19 04:36:08;;;;;;;28.35;15.55;;;;;;;8.83;100.00;100753.53;6190274;23;20013;-84
2023/03/19 04:38:34;;;;;;;28.42;16.17;;;;;;;8.95;100.00;100754.16;6189696;23;20017;-85
2023/03/19 04:41:00;;;;;;;30.75;15.85;;;;;;;9.06;100.00;100755.78;6189724;23;20499;-86
2023/03/19 04:43:26;;;;;;;28.88;15.48;;;;;;;9.11;100.00;100753.56;6189821;23;20447;-85
2023/03/19 04:45:52;;;;;;;29.58;15.90;;;;;;;9.07;100.00;100754.81;6189342;23;20004;-86
2023/03/19 04:48:21;;;;;;;29.52;16.48;;;;;;;8.93;100.00;100761.41;6189988;23;20013;-86
2023/03/19 04:50:51;;;;;;;29.65;16.15;;;;;;;9.03;99.35;100756.91;6189371;23;20016;-86
2023/03/19 04:53:17;;;;;;;28.58;16.58;;;;;;;8.71;100.00;100756.50;6216122;23;20522;-86
2023/03/19 04:55:43;;;;;;;32.55;15.60;;;;;;;8.66;100.00;100762.22;6189495;23;20471;-87
2023/03/19 04:58:15;;;;;;;27.83;14.73;;;;;;;8.74;100.00;100762.34;6189799;23;20017;-86
2023/03/19 05:00:41;;;;;;;27.15;14.70;;;;;;;8.73;100.00;100755.38;6165047;23;20020;-86
2023/03/19 05:03:06;;;;;;;28.60;15.07;;;;;;;8.94;100.00;100759.59;6189379;23;20008;-85
2023/03/19 05:05:32;;;;;;;24.98;14.95;;;;;;;8.85;100.00;100742.00;6190481;23;20024;-86
2023/03/19 05:08:00;;;;;;;27.17;15.77;;;;;;;8.64;100.00;100756.25;6190855;23;20012;-86
2023/03/19 05:10:25;;;;;;;33.25;15.45;;;;;;;8.49;100.00;100749.75;6189520;23;20306;-87
2023/03/19 05:12:51;;;;;;;26.75;15.27;;;;;;;8.55;100.00;100743.88;6189797;23;20012;-87
2023/03/19 05:15:17;;;;;;;27.67;15.25;;;;;;;8.58;100.00;100748.06;6218821;23;20336;-87
2023/03/19 05:17:58;;;;;;;28.13;15.20;;;;;;;8.76;100.00;100749.78;6189925;23;20444;-85
2023/03/19 05:20:34;;;;;;;27.30;15.73;;;;;;;8.52;100.00;100752.09;6189765;23;20009;-86
2023/03/19 05:23:05;;;;;;;26.42;15.27;;;;;;;8.58;100.00;100756.81;6190161;23;20034;-87
2023/03/19 05:25:45;;;;;;;29.48;15.57;;;;;;;8.34;100.00;100753.81;6193315;23;20012;-85
2023/03/19 05:28:13;;;;;;;31.70;15.30;;;;;;;8.43;100.00;100758.25;6190356;23;20039;-86
2023/03/19 05:30:40;;;;;;;28.80;15.50;;;;;;;8.61;100.00;100767.09;6217032;23;20011;-88
2023/03/19 05:33:17;;;;;;;28.88;14.98;;;;;;;8.60;100.00;100765.44;6189925;23;20019;-87
2023/03/19 05:35:44;;;;;;;24.60;13.93;;;;;;;8.46;100.00;100762.41;6189752;23;20017;-87
2023/03/19 05:38:21;;;;;;;31.38;15.75;;;;;;;8.12;100.00;100759.38;6190880;23;20325;-87
2023/03/19 05:41:01;;;;;;;30.35;15.20;;;;;;;8.07;100.00;100761.59;6190209;23;20009;-85
2023/03/19 05:43:34;;;;;;;31.48;15.80;;;;;;;8.42;100.00;100769.78;6191429;23;20510;-86
2023/03/19 05:46:03;;;;;;;31.27;15.75;;;;;;;8.33;100.00;100768.00;6190857;23;20019;-87
2023/03/19 05:48:32;;;;;;;36.47;15.23;;;;;;;8.16;100.00;100776.59;6190088;23;20016;-88
2023/03/19 05:50:58;;;;;;;28.25;15.75;;;;;;;8.03;100.00;100768.13;6190806;23;20004;-87
2023/03/19 05:53:28;;;;;;;32.97;16.85;;;;;;;8.04;100.00;100768.00;6193217;23;20095;-87
2023/03/19 05:56:24;;;;;;;34.03;16.10;;;;;;;8.04;100.00;100772.44;6189935;23;20013;-86
2023/03/19 05:59:08;;;;;;;31.73;16.85;;;;;;;7.74;100.00;100770.75;6191517;23;20448;-86
2023/03/19 06:01:38;;;;;;;32.45;17.42;;;;;;;7.89;100.00;100779.13;6190427;23;20085;-86
2023/03/19 06:04:03;;;;;;;29.73;16.15;;;;;;;7.90;100.00;100778.13;6216686;23;20084;-86
2023/03/19 06:06:29;;;;;;;36.75;16.90;;;;;;;7.89;100.00;100779.13;6189494;23;20019;-87
2023/03/19 06:08:55;;;;;;;33.67;17.50;;;;;;;7.81;100.00;100769.25;6216507;23;20003;-86
2023/03/19 06:11:29;;;;;;;30.73;17.55;;;;;;;7.82;100.00;100781.47;6216099;23;20391;-87
2023/03/19 06:14:20;;;;;;;37.13;17.35;;;;;;;7.92;100.00;100779.66;6216337;23;20115;-86
2023/03/19 06:17:02;;;;;;;38.97;18.48;;;;;;;7.89;100.00;100793.13;6189776;23;20095;-87
2023/03/19 06:19:28;;;;;;;38.85;18.77;;;;;;;7.66;100.00;100810.16;6189701;23;20005;-86
2023/03/19 06:21:54;;;;;;;30.48;17.35;;;;;;;7.82;100.00;100808.66;6190012;23;20448;-87
2023/03/19 06:24:19;;;;;;;33.22;18.20;;;;;;;8.12;100.00;100809.53;6216802;23;20420;-88
2023/03/19 06:26:45;;;;;;;35.58;17.80;;;;;;;8.25;100.00;100808.25;6189820;23;20055;-85
2023/03/19 06:29:13;;;;;;;36.35;18.52;;;;;;;8.26;100.00;100804.66;6189480;23;20012;-88
2023/03/19 06:31:41;;;;;;;34.00;18.33;;;;;;;8.18;100.00;100801.91;6189743;23;20017;-87
2023/03/19 06:34:18;;;;;;;34.30;17.35;;;;;;;8.60;100.00;100817.44;6188687;23;20004;-86
2023/03/19 06:36:43;;;;;;;32.72;18.33;;;;;;;8.53;100.00;100817.16;6164347;23;20013;-86
2023/03/19 06:39:11;;;;;;;35.83;17.35;;;;;;;8.88;100.00;100826.28;6164476;23;20412;-87
2023/03/19 06:41:37;;;;;;;31.10;16.77;;;;;;;8.99;100.00;100821.63;6216571;23;19997;-82
2023/03/19 06:44:17;;;;;;;27.85;16.17;;;;;;;9.18;100.00;100839.25;6189319;23;20038;-85
2023/03/19 06:46:43;;;;;;;33.13;17.23;;;;;;;9.00;100.00;100839.16;6189613;23;20008;-84
2023/03/19 06:49:09;;;;;;;30.92;17.75;;;;;;;9.00;100.00;100841.81;6216545;23;20088;-84
2023/03/19 06:51:35;;;;;;;30.92;16.25;;;;;;;8.75;100.00;100843.25;6217112;23;20104;-82
2023/03/19 06:54:01;;;;;;;35.20;17.35;;;;;;;9.06;100.00;100849.16;6217429;23;20058;-87
2023/03/19 06:56:26;;;;;;;29.02;16.30;;;;;;;9.12;100.00;100850.38;6215318;23;20074;-84
2023/03/19 06:58:52;;;;;;;39.90;18.05;;;;;;;8.87;100.00;100848.38;6215668;23;20015;-83
2023/03/19 07:01:18;;;;;;;31.17;16.92;;;;;;;8.80;100.00;100850.75;6217136;23;20012;-83
2023/03/19 07:03:46;;;;;;;32.92;17.00;;;;;;;9.12;100.00;100848.56;6215859;23;20016;-84
2023/03/19 07:06:11;;;;;;;31.20;16.48;;;;;;;9.45;100.00;100856.91;6215401;23;20087;-87
2023/03/19 07:08:37;;;;;;;28.98;16.50;;;;;;;9.64;100.00;100862.97;6216050;23;20000;-85
2023/03/19 07:11:06;;;;;;;30.45;16.38;;;;;;;9.88;100.00;100855.28;6222682;23;20012;-87
2023/03/19 07:13:33;;;;;;;33.10;18.50;;;;;;;9.32;100.00;100859.91;6234588;23;20036;-86
2023/03/19 07:15:59;;;;;;;35.15;17.33;;;;;;;9.21;100.00;100863.56;6232092;23;20012;-88
2023/03/19 07:18:25;;;;;;;28.63;17.02;;;;;;;9.29;100.00;100862.84;6225538;23;20008;-89
2023/03/19 07:20:52;;;;;;;33.28;17.95;;;;;;;9.11;100.00;100872.53;6229100;23;20019;-92
2023/03/19 07:26:48;;;;;;;32.05;17.45;;;;;;;8.97;100.00;100878.28;6117254;23;20022;-83
2023/03/19 07:29:13;;;;;;;30.38;16.90;;;;;;;8.96;100.00;100880.06;6088090;23;20018;-86
2023/03/19 07:31:40;;;;;;;33.90;18.13;;;;;;;8.82;100.00;100876.06;6140254;23;20014;-82
2023/03/19 07:34:05;;;;;;;34.95;18.40;;;;;;;8.77;100.00;100875.69;6139556;23;20053;-87
2023/03/19 07:36:31;;;;;;;38.85;19.83;;;;;;;8.75;100.00;100871.47;6149727;23;20006;-89
2023/03/19 07:38:57;;;;;;;38.63;21.23;;;;;;;8.73;100.00;100874.28;6121294;23;20052;-89
2023/03/19 07:41:23;;;;;;;34.85;20.33;;;;;;;8.46;100.00;100868.88;6121995;23;20014;-88
2023/03/19 07:46:30;;;;;;;38.92;19.45;;;;;;;9.08;100.00;100878.13;6269776;22;20024;-87
2023/03/19 07:48:59;;;;;;;32.40;19.67;;;;;;;9.39;100.00;100879.50;6242169;23;20088;-84
2023/03/19 07:51:27;;;;;;;30.65;17.80;;;;;;;9.73;100.00;100883.25;6264834;23;20006;-86
2023/03/19 07:53:54;;;;;;;30.15;17.67;;;;;;;9.93;95.23;100883.13;6269125;23;20015;-85
2023/03/19 07:56:19;;;;;;;31.15;17.70;;;;;;;9.72;95.40;100886.88;6271728;22;20023;-86
2023/03/19 07:58:45;;;;;;;28.38;16.15;;;;;;;9.92;96.12;100886.75;6268664;23;20015;-83
2023/03/19 08:01:12;;;;;;;27.88;16.35;;;;;;;10.90;88.73;100875.06;6265428;23;20059;-83
2023/03/19 08:03:42;;;;;;;31.13;16.50;;;;;;;10.89;87.08;100885.84;6240118;23;20374;-81
2023/03/19 08:06:08;;;;;;;29.70;17.63;;;;;;;10.70;87.44;100888.69;6265727;23;20019;-84
2023/03/19 08:08:35;;;;;;;34.47;18.10;;;;;;;10.81;89.58;100886.63;6233630;23;20060;-84
2023/03/19 08:11:08;;;;;;;30.95;17.73;;;;;;;11.13;86.08;100891.34;6208872;23;20005;-83
2023/03/19 08:13:39;;;;;;;26.75;16.52;;;;;;;11.58;82.03;100890.22;6230153;23;20019;-85
2023/03/19 08:16:12;;;;;;;34.10;18.90;;;;;;;11.66;81.65;100899.06;6252363;23;20451;-87
2023/03/19 08:18:38;;;;;;;32.92;16.88;;;;;;;11.33;82.31;100897.25;6230242;23;20087;-82
2023/03/19 08:21:05;;;;;;;38.17;18.08;;;;;;;11.14;84.39;100890.31;6243008;23;20016;-81
2023/03/19 08:23:36;;;;;;;32.92;17.08;;;;;;;11.46;82.77;100900.28;6266741;23;20099;-85
2023/03/19 08:26:02;;;;;;;28.95;16.33;;;;;;;12.18;77.35;100899.75;6268591;23;20016;-84
2023/03/19 08:28:27;;;;;;;34.50;18.73;;;;;;;11.98;77.59;100905.50;6246054;23;20027;-86
2023/03/19 08:30:54;;;;;;;33.33;18.90;;;;;;;12.18;76.19;100901.56;6232518;23;20458;-84
2023/03/19 08:33:21;;;;;;;35.13;17.33;;;;;;;11.89;79.00;100900.19;6230804;23;20016;-85
2023/03/19 08:35:47;;;;;;;40.83;18.05;;;;;;;11.90;78.41;100899.16;6258387;23;20000;-84
2023/03/19 08:38:15;;;;;;;27.85;16.80;;;;;;;11.62;78.40;100903.03;6260657;23;20355;-82
2023/03/19 08:40:41;;;;;;;27.95;14.90;;;;;;;11.43;81.16;100905.94;6265059;23;20081;-84
2023/03/19 08:43:07;;;;;;;30.55;16.02;;;;;;;11.45;80.21;100900.44;6255238;23;20016;-85
2023/03/19 08:45:33;;;;;;;31.50;15.52;;;;;;;11.43;82.81;100897.97;6201878;23;20052;-80
2023/03/19 08:47:58;;;;;;;29.70;16.13;;;;;;;11.53;82.20;100897.84;6201218;23;20020;-84
2023/03/19 08:50:24;;;;;;;31.30;15.75;;;;;;;11.95;80.16;100906.66;6256179;23;20028;-80
2023/03/19 08:52:49;;;;;;;144.13;80.10;;;;;;;12.54;79.03;100907.41;6254844;23;20016;-82
2023/03/19 08:55:15;;;;;;;31.95;15.68;;;;;;;12.65;74.83;100907.94;6202123;23;20695;-82
2023/03/19 08:57:42;;;;;;;28.75;16.10;;;;;;;12.32;75.78;100903.59;6225913;23;20015;-82
2023/03/19 09:00:18;;;;;;;27.92;15.52;;;;;;;12.71;75.55;100904.63;6262454;23;20000;-88
2023/03/19 09:02:46;;;;;;;32.72;15.98;;;;;;;12.47;78.20;100914.41;6262385;23;20059;-79
2023/03/19 09:05:12;;;;;;;29.83;16.45;;;;;;;12.49;78.70;100907.09;6260372;23;20028;-81
2023/03/19 09:07:37;;;;;;;27.25;15.88;;;;;;;12.90;77.08;100906.94;6254926;23;20459;-85
2023/03/19 09:10:03;;;;;;;28.73;16.08;;;;;;;13.24;76.15;100903.25;6229606;23;20008;-84
2023/03/19 09:12:29;;;;;;;34.53;18.52;;;;;;;13.24;76.01;100913.91;6256111;23;20499;-84
2023/03/19 09:14:55;;;;;;;31.05;16.73;;;;;;;13.51;75.65;100912.66;6256631;23;20000;-82
2023/03/19 09:17:20;;;;;;;29.30;15.98;;;;;;;13.42;75.28;100912.66;6249542;23;20059;-85
2023/03/19 09:19:48;;;;;;;26.48;15.88;;;;;;;13.12;76.42;100907.28;6251341;23;20012;-84
2023/03/19 09:22:17;;;;;;;29.48;16.42;;;;;;;12.81;79.15;100901.78;6252339;23;20066;-86
2023/03/19 09:24:43;;;;;;;28.08;17.67;;;;;;;12.62;80.61;100908.28;6225836;23;20016;-83
2023/03/19 09:27:08;;;;;;;31.02;17.33;;;;;;;12.50;82.42;100900.75;6251915;23;20084;-81
2023/03/19 09:29:34;;;;;;;27.48;17.42;;;;;;;12.28;84.60;100896.94;6251905;23;20073;-84
2023/03/19 09:32:03;;;;;;;31.73;17.88;;;;;;;12.41;84.52;100900.78;6228289;23;20075;-85
2023/03/19 09:34:28;;;;;;;35.80;18.80;;;;;;;12.42;84.44;100896.28;6227355;23;20066;-85
2023/03/19 09:36:54;;;;;;;30.38;17.27;;;;;;;12.99;82.25;100909.59;6252039;23;20008;-83
2023/03/19 09:39:20;;;;;;;32.40;17.50;;;;;;;13.46;78.69;100919.31;6226279;23;20012;-84
2023/03/19 09:42:07;;;;;;;33.92;18.52;;;;;;;13.25;78.52;100931.53;6251211;23;20412;-81
2023/03/19 09:44:38;;;;;;;31.48;17.38;;;;;;;13.42;79.03;100930.50;6251066;23;20004;-81
2023/03/19 09:47:25;;;;;;;29.65;17.33;;;;;;;13.62;77.94;100918.44;6251814;23;20011;-82
2023/03/19 09:49:54;;;;;;;27.02;17.15;;;;;;;14.03;76.67;100915.59;6250707;23;20079;-82
2023/03/19 09:52:47;;;;;;;28.30;17.13;;;;;;;14.29;73.92;100910.78;6251059;23;20008;-82
2023/03/19 09:55:26;;;;;;;29.05;15.68;;;;;;;14.61;71.54;100912.44;6252644;23;20024;-81
2023/03/19 09:57:55;;;;;;;31.50;17.23;;;;;;;14.25;72.48;100918.28;6226495;23;20008;-81
2023/03/19 10:00:24;;;;;;;28.17;16.95;;;;;;;14.68;70.32;100916.03;6226402;23;20036;-81
2023/03/19 10:02:57;;;;;;;33.22;16.77;;;;;;;14.92;69.07;100908.66;6252369;23;20004;-81
2023/03/19 10:05:42;;;;;;;28.65;16.38;;;;;;;14.76;68.29;100916.78;6252696;23;20012;-81
2023/03/19 10:08:40;;;;;;;30.30;15.57;;;;;;;15.24;65.15;100912.03;6251972;23;20012;-81
2023/03/19 10:11:28;;;;;;;35.20;16.02;;;;;;;14.99;67.23;100908.75;6251359;23;20004;-82
2023/03/19 10:13:54;;;;;;;25.73;15.13;;;;;;;15.53;65.64;100912.06;6252990;23;20012;-83
2023/03/19 10:16:24;;;;;;;25.63;14.73;;;;;;;15.97;63.92;100914.69;6255321;23;20035;-80
2023/03/19 10:18:53;;;;;;;28.80;14.20;;;;;;;15.69;62.87;100905.69;6254822;23;20008;-81
2023/03/19 10:21:55;;;;;;;22.17;13.07;;;;;;;15.06;66.51;100908.84;6257171;23;20015;-80
2023/03/19 10:24:33;;;;;;;26.02;14.52;;;;;;;15.59;65.57;100911.31;6254485;23;20008;-81
2023/03/19 10:27:09;;;;;;;26.60;14.57;;;;;;;16.45;61.18;100908.63;6253603;23;20037;-81
2023/03/19 10:29:36;;;;;;;30.42;15.13;;;;;;;17.28;58.62;100910.59;6253248;23;20008;-79
2023/03/19 10:32:46;;;;;;;27.45;14.77;;;;;;;17.37;58.42;100900.53;6225345;23;20012;-81
2023/03/19 10:35:23;;;;;;;28.42;15.77;;;;;;;16.67;58.69;100901.44;6218589;23;20058;-84
2023/03/19 10:37:49;;;;;;;24.63;15.93;;;;;;;16.51;60.63;100901.69;6254826;23;20094;-83
2023/03/19 10:40:23;;;;;;;33.85;17.08;;;;;;;15.64;64.11;100908.09;6254713;23;20004;-84
2023/03/19 13:46:43;;;;;;;42.92;24.27;;;;;;;15.24;62.52;100766.00;6162574;22;20016;-87
2023/03/19 13:49:18;;;;;;;44.53;23.75;;;;;;;15.32;62.08;100754.34;6191664;23;20074;-85
2023/03/19 13:51:46;;;;;;;43.50;25.25;;;;;;;15.19;62.68;100754.19;6200591;23;20027;-87
2023/03/19 13:54:12;;;;;;;40.35;23.85;;;;;;;15.11;62.38;100752.47;6229362;23;20031;-85
2023/03/19 13:57:06;;;;;;;45.55;24.55;;;;;;;15.19;61.27;100749.69;6200987;23;20012;-84
2023/03/19 13:59:42;;;;;;;44.45;25.33;;;;;;;15.12;61.64;100753.28;6226663;23;20013;-85
2023/03/19 14:02:25;;;;;;;43.47;25.08;;;;;;;15.36;60.33;100750.31;6223975;23;20016;-84
2023/03/19 14:05:00;;;;;;;41.15;23.50;;;;;;;15.24;58.81;100751.81;6216763;23;20463;-84
2023/03/19 14:07:32;;;;;;;48.40;24.45;;;;;;;15.52;59.42;100750.09;6230223;23;20336;-86
2023/03/19 14:09:58;;;;;;;39.72;22.55;;;;;;;15.15;59.23;100744.91;6223232;23;20010;-88
2023/03/19 14:12:24;;;;;;;47.97;24.00;;;;;;;15.35;55.78;100744.13;6216754;23;20043;-84
2023/03/19 14:14:59;;;;;;;47.72;24.75;;;;;;;15.55;55.57;100743.56;6222624;23;20035;-82
2023/03/19 14:17:31;;;;;;;42.55;23.20;;;;;;;15.25;57.10;100742.75;6217343;23;20016;-86
2023/03/19 14:20:03;;;;;;;40.05;23.85;;;;;;;15.01;58.69;100742.06;6189416;23;20012;-86
2023/03/19 14:22:34;;;;;;;41.92;22.58;;;;;;;14.98;57.78;100731.75;6189422;23;20316;-83
2023/03/19 14:25:20;;;;;;;41.28;22.23;;;;;;;14.96;55.04;100736.47;6193090;23;20321;-85
2023/03/19 14:27:54;;;;;;;38.67;20.05;;;;;;;15.18;53.51;100725.88;6189675;23;20087;-87
2023/03/19 14:30:19;;;;;;;40.03;19.58;;;;;;;15.23;51.73;100732.28;6191203;23;20317;-84
2023/03/19 14:32:47;;;;;;;43.08;22.98;;;;;;;15.26;55.55;100733.75;6215554;23;20015;-85